Pukalani, Hawaii
Current Conditions -  °F | °C
As of 4:54 AM on Friday 28 Nov 2014 (Local Time) from PHOG Reporting Station
Overcast Overcast  
Wind Chill: 71°   Ceiling: 4800
Heat Index: 71°   Visibility: 10mi
Dew Point: 67°   Wind: 0mph
Humidity: 87%   Direction: NA
Pressure: 30.03"   Gusts: NA
Location:  20.83°N, 156.32°W
Report Text: PHOG 281454Z AUTO 00000KT 10SM FEW025 SCT034 OVC048 22/19 A3003 RMK AO2 RAE43 SLP175 P0004 60005 T02170194 56004 TSNO $
Loading
Personal Weather Stations






























Interactive Weather Map New forecast layout! Learn more

10-Day Weather Forecast

Advertisements
Track Severe Weather on mobile